sensor_id;sensor_type;location;lat;lon;timestamp;temperature;humidity
20650;DHT22;10484;48.736;9.332;2024-02-04T00:00:27;7.80;23.60
20650;DHT22;10484;48.736;9.332;2024-02-04T00:02:53;7.80;23.70
20650;DHT22;10484;48.736;9.332;2024-02-04T00:05:19;7.80;24.10
20650;DHT22;10484;48.736;9.332;2024-02-04T00:07:45;7.80;24.30
20650;DHT22;10484;48.736;9.332;2024-02-04T00:10:10;7.80;24.80
20650;DHT22;10484;48.736;9.332;2024-02-04T00:12:37;7.80;24.70
20650;DHT22;10484;48.736;9.332;2024-02-04T00:15:03;7.80;24.30
20650;DHT22;10484;48.736;9.332;2024-02-04T00:17:31;7.80;23.90
20650;DHT22;10484;48.736;9.332;2024-02-04T00:20:00;7.80;23.50
20650;DHT22;10484;48.736;9.332;2024-02-04T00:22:26;7.80;22.70
20650;DHT22;10484;48.736;9.332;2024-02-04T00:24:52;7.80;22.20
20650;DHT22;10484;48.736;9.332;2024-02-04T00:27:18;7.80;21.80
20650;DHT22;10484;48.736;9.332;2024-02-04T00:29:43;7.90;21.40
20650;DHT22;10484;48.736;9.332;2024-02-04T00:32:09;7.90;20.90
20650;DHT22;10484;48.736;9.332;2024-02-04T00:34:34;7.90;20.80
20650;DHT22;10484;48.736;9.332;2024-02-04T00:37:00;7.90;20.40
20650;DHT22;10484;48.736;9.332;2024-02-04T00:39:26;7.90;20.50
20650;DHT22;10484;48.736;9.332;2024-02-04T00:41:51;7.80;20.70
20650;DHT22;10484;48.736;9.332;2024-02-04T00:44:17;7.80;20.30
20650;DHT22;10484;48.736;9.332;2024-02-04T00:46:43;7.80;20.40
20650;DHT22;10484;48.736;9.332;2024-02-04T00:49:09;7.80;20.60
20650;DHT22;10484;48.736;9.332;2024-02-04T00:51:34;7.80;21.20
20650;DHT22;10484;48.736;9.332;2024-02-04T00:54:00;7.80;21.30
20650;DHT22;10484;48.736;9.332;2024-02-04T00:56:25;7.80;21.50
20650;DHT22;10484;48.736;9.332;2024-02-04T00:58:51;7.80;21.50
20650;DHT22;10484;48.736;9.332;2024-02-04T01:01:17;7.80;21.60
20650;DHT22;10484;48.736;9.332;2024-02-04T01:03:43;7.70;21.70
20650;DHT22;10484;48.736;9.332;2024-02-04T01:06:08;7.70;21.70
20650;DHT22;10484;48.736;9.332;2024-02-04T01:08:34;7.70;22.00
20650;DHT22;10484;48.736;9.332;2024-02-04T01:11:00;7.70;22.30
20650;DHT22;10484;48.736;9.332;2024-02-04T01:13:28;7.60;22.50
20650;DHT22;10484;48.736;9.332;2024-02-04T01:15:53;7.60;22.10
20650;DHT22;10484;48.736;9.332;2024-02-04T01:18:19;7.60;22.60
20650;DHT22;10484;48.736;9.332;2024-02-04T01:20:44;7.60;22.40
20650;DHT22;10484;48.736;9.332;2024-02-04T01:23:10;7.60;22.40
20650;DHT22;10484;48.736;9.332;2024-02-04T01:25:35;7.50;22.30
20650;DHT22;10484;48.736;9.332;2024-02-04T01:28:01;7.50;22.40
20650;DHT22;10484;48.736;9.332;2024-02-04T01:30:27;7.50;22.40
20650;DHT22;10484;48.736;9.332;2024-02-04T01:32:55;7.50;22.70
20650;DHT22;10484;48.736;9.332;2024-02-04T01:35:21;7.50;22.90
20650;DHT22;10484;48.736;9.332;2024-02-04T01:37:46;7.40;23.20
20650;DHT22;10484;48.736;9.332;2024-02-04T01:40:14;7.40;23.50
20650;DHT22;10484;48.736;9.332;2024-02-04T01:42:39;7.40;23.80
20650;DHT22;10484;48.736;9.332;2024-02-04T01:45:05;7.40;24.30
20650;DHT22;10484;48.736;9.332;2024-02-04T01:47:31;7.40;24.30
20650;DHT22;10484;48.736;9.332;2024-02-04T01:49:57;7.40;24.90
20650;DHT22;10484;48.736;9.332;2024-02-04T01:52:22;7.40;25.40
20650;DHT22;10484;48.736;9.332;2024-02-04T01:54:49;7.30;25.90
20650;DHT22;10484;48.736;9.332;2024-02-04T01:57:16;7.40;26.50
20650;DHT22;10484;48.736;9.332;2024-02-04T01:59:42;7.30;27.00
20650;DHT22;10484;48.736;9.332;2024-02-04T02:02:09;7.30;27.50
20650;DHT22;10484;48.736;9.332;2024-02-04T02:04:34;7.30;28.10
20650;DHT22;10484;48.736;9.332;2024-02-04T02:07:02;7.30;28.80
20650;DHT22;10484;48.736;9.332;2024-02-04T02:09:28;7.30;29.00
20650;DHT22;10484;48.736;9.332;2024-02-04T02:14:31;7.30;30.20
20650;DHT22;10484;48.736;9.332;2024-02-04T02:17:01;7.30;30.50
20650;DHT22;10484;48.736;9.332;2024-02-04T02:19:59;7.30;30.90
20650;DHT22;10484;48.736;9.332;2024-02-04T02:22:39;7.30;31.80
20650;DHT22;10484;48.736;9.332;2024-02-04T02:25:11;7.30;32.20
20650;DHT22;10484;48.736;9.332;2024-02-04T02:27:49;7.30;33.00
20650;DHT22;10484;48.736;9.332;2024-02-04T02:30:15;7.30;33.40
20650;DHT22;10484;48.736;9.332;2024-02-04T02:32:43;7.30;34.00
20650;DHT22;10484;48.736;9.332;2024-02-04T02:35:09;7.30;34.20
20650;DHT22;10484;48.736;9.332;2024-02-04T02:37:45;7.30;34.30
20650;DHT22;10484;48.736;9.332;2024-02-04T02:40:29;7.30;34.40
20650;DHT22;10484;48.736;9.332;2024-02-04T02:42:57;7.30;34.30
20650;DHT22;10484;48.736;9.332;2024-02-04T02:45:24;7.30;34.40
20650;DHT22;10484;48.736;9.332;2024-02-04T02:47:51;7.30;34.70
20650;DHT22;10484;48.736;9.332;2024-02-04T02:50:18;7.30;34.70
20650;DHT22;10484;48.736;9.332;2024-02-04T02:52:43;7.30;34.80
20650;DHT22;10484;48.736;9.332;2024-02-04T02:55:09;7.30;34.80
20650;DHT22;10484;48.736;9.332;2024-02-04T02:57:34;7.30;34.80
20650;DHT22;10484;48.736;9.332;2024-02-04T03:00:00;7.30;34.80
20650;DHT22;10484;48.736;9.332;2024-02-04T03:02:26;7.30;34.80
20650;DHT22;10484;48.736;9.332;2024-02-04T03:04:51;7.30;34.90
20650;DHT22;10484;48.736;9.332;2024-02-04T03:07:17;7.20;34.80
20650;DHT22;10484;48.736;9.332;2024-02-04T03:09:42;7.20;34.80
20650;DHT22;10484;48.736;9.332;2024-02-04T03:12:09;7.20;34.80
20650;DHT22;10484;48.736;9.332;2024-02-04T03:14:34;7.20;34.90
20650;DHT22;10484;48.736;9.332;2024-02-04T03:17:03;7.20;34.80
20650;DHT22;10484;48.736;9.332;2024-02-04T03:19:29;7.20;35.00
20650;DHT22;10484;48.736;9.332;2024-02-04T03:21:54;7.30;34.80
20650;DHT22;10484;48.736;9.332;2024-02-04T03:24:20;7.30;35.10
20650;DHT22;10484;48.736;9.332;2024-02-04T03:26:45;7.30;34.90
20650;DHT22;10484;48.736;9.332;2024-02-04T03:29:11;7.30;34.50
20650;DHT22;10484;48.736;9.332;2024-02-04T03:31:36;7.40;33.80
20650;DHT22;10484;48.736;9.332;2024-02-04T03:34:02;7.40;33.10
20650;DHT22;10484;48.736;9.332;2024-02-04T03:36:28;7.40;31.90
20650;DHT22;10484;48.736;9.332;2024-02-04T03:38:53;7.40;30.20
20650;DHT22;10484;48.736;9.332;2024-02-04T03:41:19;7.40;29.20
20650;DHT22;10484;48.736;9.332;2024-02-04T03:43:45;7.50;28.70
20650;DHT22;10484;48.736;9.332;2024-02-04T03:46:16;7.50;27.70
20650;DHT22;10484;48.736;9.332;2024-02-04T03:48:43;7.50;27.20
20650;DHT22;10484;48.736;9.332;2024-02-04T03:51:14;7.50;26.80
20650;DHT22;10484;48.736;9.332;2024-02-04T03:53:40;7.50;26.40
20650;DHT22;10484;48.736;9.332;2024-02-04T03:56:05;7.50;25.90
20650;DHT22;10484;48.736;9.332;2024-02-04T03:58:32;7.50;25.60
20650;DHT22;10484;48.736;9.332;2024-02-04T04:00:58;7.50;25.20
20650;DHT22;10484;48.736;9.332;2024-02-04T04:03:25;7.50;25.00
20650;DHT22;10484;48.736;9.332;2024-02-04T04:05:52;7.60;24.80
20650;DHT22;10484;48.736;9.332;2024-02-04T04:08:18;7.60;24.60
20650;DHT22;10484;48.736;9.332;2024-02-04T04:10:44;7.60;24.60
20650;DHT22;10484;48.736;9.332;2024-02-04T04:13:10;7.50;24.70
20650;DHT22;10484;48.736;9.332;2024-02-04T04:15:35;7.50;24.90
20650;DHT22;10484;48.736;9.332;2024-02-04T04:18:01;7.50;24.90
20650;DHT22;10484;48.736;9.332;2024-02-04T04:20:27;7.50;24.70
20650;DHT22;10484;48.736;9.332;2024-02-04T04:22:52;7.50;25.10
20650;DHT22;10484;48.736;9.332;2024-02-04T04:25:18;7.50;25.30
20650;DHT22;10484;48.736;9.332;2024-02-04T04:27:44;7.50;25.60
20650;DHT22;10484;48.736;9.332;2024-02-04T04:30:10;7.50;25.90
20650;DHT22;10484;48.736;9.332;2024-02-04T04:32:35;7.50;26.00
20650;DHT22;10484;48.736;9.332;2024-02-04T04:35:01;7.50;26.10
20650;DHT22;10484;48.736;9.332;2024-02-04T04:37:27;7.40;29.90
20650;DHT22;10484;48.736;9.332;2024-02-04T04:39:52;7.40;26.80
20650;DHT22;10484;48.736;9.332;2024-02-04T04:42:18;7.40;27.20
20650;DHT22;10484;48.736;9.332;2024-02-04T04:44:43;7.40;27.50
20650;DHT22;10484;48.736;9.332;2024-02-04T04:47:09;7.40;27.80
20650;DHT22;10484;48.736;9.332;2024-02-04T04:49:34;7.40;31.10
20650;DHT22;10484;48.736;9.332;2024-02-04T04:52:00;7.40;27.70
20650;DHT22;10484;48.736;9.332;2024-02-04T04:54:27;7.40;27.50
20650;DHT22;10484;48.736;9.332;2024-02-04T04:56:53;7.40;27.40
20650;DHT22;10484;48.736;9.332;2024-02-04T04:59:19;7.40;27.50
20650;DHT22;10484;48.736;9.332;2024-02-04T05:01:48;7.40;27.80
20650;DHT22;10484;48.736;9.332;2024-02-04T05:04:14;7.40;27.30
20650;DHT22;10484;48.736;9.332;2024-02-04T05:06:40;7.50;26.90
20650;DHT22;10484;48.736;9.332;2024-02-04T05:09:05;7.50;26.40
20650;DHT22;10484;48.736;9.332;2024-02-04T05:11:31;7.50;26.20
20650;DHT22;10484;48.736;9.332;2024-02-04T05:13:56;7.50;25.90
20650;DHT22;10484;48.736;9.332;2024-02-04T05:16:22;7.50;25.50
20650;DHT22;10484;48.736;9.332;2024-02-04T05:18:48;7.50;25.10
20650;DHT22;10484;48.736;9.332;2024-02-04T05:21:13;7.50;25.00
20650;DHT22;10484;48.736;9.332;2024-02-04T05:23:39;7.50;24.70
20650;DHT22;10484;48.736;9.332;2024-02-04T05:26:05;7.50;24.70
20650;DHT22;10484;48.736;9.332;2024-02-04T05:28:31;7.50;24.10
20650;DHT22;10484;48.736;9.332;2024-02-04T05:30:57;7.50;23.80
20650;DHT22;10484;48.736;9.332;2024-02-04T05:33:23;7.50;23.80
20650;DHT22;10484;48.736;9.332;2024-02-04T05:35:48;7.50;23.50
20650;DHT22;10484;48.736;9.332;2024-02-04T05:38:14;7.50;23.20
20650;DHT22;10484;48.736;9.332;2024-02-04T05:40:39;7.50;23.10
20650;DHT22;10484;48.736;9.332;2024-02-04T05:43:05;7.50;22.80
20650;DHT22;10484;48.736;9.332;2024-02-04T05:45:33;7.50;22.70
20650;DHT22;10484;48.736;9.332;2024-02-04T05:47:59;7.50;22.60
20650;DHT22;10484;48.736;9.332;2024-02-04T05:50:24;7.50;22.30
20650;DHT22;10484;48.736;9.332;2024-02-04T05:52:50;7.50;22.00
20650;DHT22;10484;48.736;9.332;2024-02-04T05:55:15;7.50;21.90
20650;DHT22;10484;48.736;9.332;2024-02-04T05:57:41;7.50;21.90
20650;DHT22;10484;48.736;9.332;2024-02-04T06:00:08;7.50;21.90
20650;DHT22;10484;48.736;9.332;2024-02-04T06:02:35;7.60;21.70
20650;DHT22;10484;48.736;9.332;2024-02-04T06:05:02;7.50;21.40
20650;DHT22;10484;48.736;9.332;2024-02-04T06:07:27;7.50;21.20
20650;DHT22;10484;48.736;9.332;2024-02-04T06:09:54;7.50;21.00
20650;DHT22;10484;48.736;9.332;2024-02-04T06:12:21;7.50;21.00
20650;DHT22;10484;48.736;9.332;2024-02-04T06:14:47;7.60;20.90
20650;DHT22;10484;48.736;9.332;2024-02-04T06:17:13;7.50;20.80
20650;DHT22;10484;48.736;9.332;2024-02-04T06:19:38;7.60;20.90
20650;DHT22;10484;48.736;9.332;2024-02-04T06:22:04;7.50;20.80
20650;DHT22;10484;48.736;9.332;2024-02-04T06:24:29;7.60;20.90
20650;DHT22;10484;48.736;9.332;2024-02-04T06:26:55;7.60;20.60
20650;DHT22;10484;48.736;9.332;2024-02-04T06:29:21;7.50;20.50
20650;DHT22;10484;48.736;9.332;2024-02-04T06:31:47;7.50;20.30
20650;DHT22;10484;48.736;9.332;2024-02-04T06:34:13;7.50;20.10
20650;DHT22;10484;48.736;9.332;2024-02-04T06:36:42;7.50;19.90
20650;DHT22;10484;48.736;9.332;2024-02-04T06:39:08;7.50;19.60
20650;DHT22;10484;48.736;9.332;2024-02-04T06:41:34;7.50;19.60
20650;DHT22;10484;48.736;9.332;2024-02-04T06:44:00;7.50;19.50
20650;DHT22;10484;48.736;9.332;2024-02-04T06:46:27;7.50;19.40
20650;DHT22;10484;48.736;9.332;2024-02-04T06:48:53;7.50;19.20
20650;DHT22;10484;48.736;9.332;2024-02-04T06:51:19;7.50;19.30
20650;DHT22;10484;48.736;9.332;2024-02-04T06:53:45;7.50;19.00
20650;DHT22;10484;48.736;9.332;2024-02-04T06:56:10;7.50;21.90
20650;DHT22;10484;48.736;9.332;2024-02-04T06:58:40;7.50;18.60
20650;DHT22;10484;48.736;9.332;2024-02-04T07:01:06;7.50;18.60
20650;DHT22;10484;48.736;9.332;2024-02-04T07:03:32;7.50;18.70
20650;DHT22;10484;48.736;9.332;2024-02-04T07:05:58;7.50;18.60
20650;DHT22;10484;48.736;9.332;2024-02-04T07:08:24;7.50;18.40
20650;DHT22;10484;48.736;9.332;2024-02-04T07:10:50;7.50;18.50
20650;DHT22;10484;48.736;9.332;2024-02-04T07:13:16;7.50;18.50
20650;DHT22;10484;48.736;9.332;2024-02-04T07:15:42;7.50;18.60
20650;DHT22;10484;48.736;9.332;2024-02-04T07:18:07;7.50;18.60
20650;DHT22;10484;48.736;9.332;2024-02-04T07:20:33;7.50;18.60
20650;DHT22;10484;48.736;9.332;2024-02-04T07:22:58;7.50;18.50
20650;DHT22;10484;48.736;9.332;2024-02-04T07:25:24;7.50;18.60
20650;DHT22;10484;48.736;9.332;2024-02-04T07:27:50;7.50;18.60
20650;DHT22;10484;48.736;9.332;2024-02-04T07:30:15;7.50;18.90
20650;DHT22;10484;48.736;9.332;2024-02-04T07:32:41;7.50;18.80
20650;DHT22;10484;48.736;9.332;2024-02-04T07:35:07;7.50;18.90
20650;DHT22;10484;48.736;9.332;2024-02-04T07:37:34;7.50;18.90
20650;DHT22;10484;48.736;9.332;2024-02-04T07:40:00;7.50;19.30
20650;DHT22;10484;48.736;9.332;2024-02-04T07:42:26;7.50;19.30
20650;DHT22;10484;48.736;9.332;2024-02-04T07:44:52;7.50;19.30
20650;DHT22;10484;48.736;9.332;2024-02-04T07:47:18;7.50;19.40
20650;DHT22;10484;48.736;9.332;2024-02-04T07:49:47;7.50;19.50
20650;DHT22;10484;48.736;9.332;2024-02-04T07:52:12;7.50;22.40
20650;DHT22;10484;48.736;9.332;2024-02-04T07:54:38;7.60;19.30
20650;DHT22;10484;48.736;9.332;2024-02-04T07:57:04;7.60;19.10
20650;DHT22;10484;48.736;9.332;2024-02-04T07:59:29;7.60;19.40
20650;DHT22;10484;48.736;9.332;2024-02-04T08:01:55;7.60;19.00
20650;DHT22;10484;48.736;9.332;2024-02-04T08:04:20;7.60;19.10
20650;DHT22;10484;48.736;9.332;2024-02-04T08:06:46;7.60;18.70
20650;DHT22;10484;48.736;9.332;2024-02-04T08:09:12;7.60;18.80
20650;DHT22;10484;48.736;9.332;2024-02-04T08:11:37;7.60;18.80
20650;DHT22;10484;48.736;9.332;2024-02-04T08:14:03;7.70;18.70
20650;DHT22;10484;48.736;9.332;2024-02-04T08:16:29;7.70;18.60
20650;DHT22;10484;48.736;9.332;2024-02-04T08:18:55;7.70;18.60
20650;DHT22;10484;48.736;9.332;2024-02-04T08:21:20;7.70;18.70
20650;DHT22;10484;48.736;9.332;2024-02-04T08:23:46;7.70;18.50
20650;DHT22;10484;48.736;9.332;2024-02-04T08:26:11;7.70;18.40
20650;DHT22;10484;48.736;9.332;2024-02-04T08:28:37;7.70;18.30
20650;DHT22;10484;48.736;9.332;2024-02-04T08:31:02;7.70;18.00
20650;DHT22;10484;48.736;9.332;2024-02-04T08:33:28;7.70;18.00
20650;DHT22;10484;48.736;9.332;2024-02-04T08:35:53;7.80;17.90
20650;DHT22;10484;48.736;9.332;2024-02-04T08:38:19;7.80;17.90
20650;DHT22;10484;48.736;9.332;2024-02-04T08:40:45;7.80;17.70
20650;DHT22;10484;48.736;9.332;2024-02-04T08:43:10;7.80;17.50
20650;DHT22;10484;48.736;9.332;2024-02-04T08:45:36;7.90;17.40
20650;DHT22;10484;48.736;9.332;2024-02-04T08:48:01;7.90;17.20
20650;DHT22;10484;48.736;9.332;2024-02-04T08:50:28;7.90;17.00
20650;DHT22;10484;48.736;9.332;2024-02-04T08:52:54;7.90;16.80
20650;DHT22;10484;48.736;9.332;2024-02-04T08:55:19;7.90;16.70
20650;DHT22;10484;48.736;9.332;2024-02-04T08:57:45;8.00;16.50
20650;DHT22;10484;48.736;9.332;2024-02-04T09:00:11;8.00;16.30
20650;DHT22;10484;48.736;9.332;2024-02-04T09:02:40;8.00;16.30
20650;DHT22;10484;48.736;9.332;2024-02-04T09:05:06;8.00;16.40
20650;DHT22;10484;48.736;9.332;2024-02-04T09:07:31;8.00;16.10
20650;DHT22;10484;48.736;9.332;2024-02-04T09:09:57;8.10;16.10
20650;DHT22;10484;48.736;9.332;2024-02-04T09:12:23;8.10;15.70
20650;DHT22;10484;48.736;9.332;2024-02-04T09:14:48;8.10;15.70
20650;DHT22;10484;48.736;9.332;2024-02-04T09:17:14;8.10;15.30
20650;DHT22;10484;48.736;9.332;2024-02-04T09:19:40;8.10;15.40
20650;DHT22;10484;48.736;9.332;2024-02-04T09:22:05;8.10;15.40
20650;DHT22;10484;48.736;9.332;2024-02-04T09:24:32;8.10;15.20
20650;DHT22;10484;48.736;9.332;2024-02-04T09:26:57;8.10;15.00
20650;DHT22;10484;48.736;9.332;2024-02-04T09:29:23;8.20;14.80
20650;DHT22;10484;48.736;9.332;2024-02-04T09:31:49;8.20;14.70
20650;DHT22;10484;48.736;9.332;2024-02-04T09:34:18;8.20;14.60
20650;DHT22;10484;48.736;9.332;2024-02-04T09:36:44;8.20;14.60
20650;DHT22;10484;48.736;9.332;2024-02-04T09:39:09;8.20;13.80
20650;DHT22;10484;48.736;9.332;2024-02-04T09:41:35;8.20;13.60
20650;DHT22;10484;48.736;9.332;2024-02-04T09:44:02;8.20;13.70
20650;DHT22;10484;48.736;9.332;2024-02-04T09:46:29;8.20;13.60
20650;DHT22;10484;48.736;9.332;2024-02-04T09:48:55;8.20;13.40
20650;DHT22;10484;48.736;9.332;2024-02-04T09:51:21;8.30;13.50
20650;DHT22;10484;48.736;9.332;2024-02-04T09:53:51;8.30;13.40
20650;DHT22;10484;48.736;9.332;2024-02-04T09:56:18;8.30;13.10
20650;DHT22;10484;48.736;9.332;2024-02-04T09:58:44;8.30;12.90
20650;DHT22;10484;48.736;9.332;2024-02-04T10:01:10;8.30;12.80
20650;DHT22;10484;48.736;9.332;2024-02-04T10:03:37;8.30;13.00
20650;DHT22;10484;48.736;9.332;2024-02-04T10:06:03;8.40;12.80
20650;DHT22;10484;48.736;9.332;2024-02-04T10:08:28;8.40;12.60
20650;DHT22;10484;48.736;9.332;2024-02-04T10:10:54;8.40;12.20
20650;DHT22;10484;48.736;9.332;2024-02-04T10:13:20;8.40;12.10
20650;DHT22;10484;48.736;9.332;2024-02-04T10:15:47;8.40;12.00
20650;DHT22;10484;48.736;9.332;2024-02-04T10:18:13;8.50;11.90
20650;DHT22;10484;48.736;9.332;2024-02-04T10:20:39;8.50;11.70
20650;DHT22;10484;48.736;9.332;2024-02-04T10:23:04;8.50;11.60
20650;DHT22;10484;48.736;9.332;2024-02-04T10:25:30;8.50;11.80
20650;DHT22;10484;48.736;9.332;2024-02-04T10:27:56;8.60;11.90
20650;DHT22;10484;48.736;9.332;2024-02-04T10:30:23;8.60;11.60
20650;DHT22;10484;48.736;9.332;2024-02-04T10:32:53;8.60;11.40
20650;DHT22;10484;48.736;9.332;2024-02-04T10:35:22;8.60;11.20
20650;DHT22;10484;48.736;9.332;2024-02-04T10:37:49;8.60;11.20
20650;DHT22;10484;48.736;9.332;2024-02-04T10:40:16;8.70;11.20
20650;DHT22;10484;48.736;9.332;2024-02-04T10:42:43;8.70;11.10
20650;DHT22;10484;48.736;9.332;2024-02-04T10:45:09;8.70;11.00
20650;DHT22;10484;48.736;9.332;2024-02-04T10:47:37;8.80;11.00
20650;DHT22;10484;48.736;9.332;2024-02-04T10:50:04;8.80;11.10
20650;DHT22;10484;48.736;9.332;2024-02-04T10:52:36;8.80;10.70
20650;DHT22;10484;48.736;9.332;2024-02-04T10:55:09;8.90;10.50
20650;DHT22;10484;48.736;9.332;2024-02-04T10:57:37;8.90;10.10
20650;DHT22;10484;48.736;9.332;2024-02-04T11:00:03;8.90;10.20
20650;DHT22;10484;48.736;9.332;2024-02-04T11:02:38;8.90;10.10
20650;DHT22;10484;48.736;9.332;2024-02-04T11:05:08;9.00;9.80
20650;DHT22;10484;48.736;9.332;2024-02-04T11:07:35;9.00;9.80
20650;DHT22;10484;48.736;9.332;2024-02-04T11:10:01;9.10;9.70
20650;DHT22;10484;48.736;9.332;2024-02-04T11:12:28;9.10;9.60
20650;DHT22;10484;48.736;9.332;2024-02-04T11:15:01;9.10;9.20
20650;DHT22;10484;48.736;9.332;2024-02-04T11:25:47;9.20;8.10
20650;DHT22;10484;48.736;9.332;2024-02-04T11:28:13;9.20;8.10
20650;DHT22;10484;48.736;9.332;2024-02-04T11:30:40;9.30;8.00
20650;DHT22;10484;48.736;9.332;2024-02-04T11:33:08;9.30;8.00
20650;DHT22;10484;48.736;9.332;2024-02-04T11:35:36;9.30;8.10
20650;DHT22;10484;48.736;9.332;2024-02-04T11:38:03;9.40;7.90
20650;DHT22;10484;48.736;9.332;2024-02-04T11:40:35;9.40;7.70
20650;DHT22;10484;48.736;9.332;2024-02-04T11:43:10;9.50;7.80
20650;DHT22;10484;48.736;9.332;2024-02-04T11:45:43;9.50;7.90
20650;DHT22;10484;48.736;9.332;2024-02-04T11:48:10;9.60;7.30
20650;DHT22;10484;48.736;9.332;2024-02-04T11:50:37;9.60;7.40
20650;DHT22;10484;48.736;9.332;2024-02-04T11:53:13;9.60;10.30
20650;DHT22;10484;48.736;9.332;2024-02-04T11:55:40;9.70;6.90
20650;DHT22;10484;48.736;9.332;2024-02-04T11:58:06;9.70;6.80
20650;DHT22;10484;48.736;9.332;2024-02-04T12:00:35;9.70;6.30
20650;DHT22;10484;48.736;9.332;2024-02-04T12:03:05;9.80;6.30
20650;DHT22;10484;48.736;9.332;2024-02-04T12:05:37;9.80;6.00
20650;DHT22;10484;48.736;9.332;2024-02-04T12:08:07;9.80;5.90
20650;DHT22;10484;48.736;9.332;2024-02-04T12:10:36;9.80;5.80
20650;DHT22;10484;48.736;9.332;2024-02-04T12:13:04;9.90;5.80
20650;DHT22;10484;48.736;9.332;2024-02-04T12:15:30;9.90;5.80
20650;DHT22;10484;48.736;9.332;2024-02-04T12:18:04;10.00;5.10
20650;DHT22;10484;48.736;9.332;2024-02-04T12:20:30;10.00;5.00
20650;DHT22;10484;48.736;9.332;2024-02-04T12:22:56;10.00;4.90
20650;DHT22;10484;48.736;9.332;2024-02-04T12:25:22;10.10;4.90
20650;DHT22;10484;48.736;9.332;2024-02-04T12:27:51;10.10;4.30
20650;DHT22;10484;48.736;9.332;2024-02-04T12:30:17;10.20;4.20
20650;DHT22;10484;48.736;9.332;2024-02-04T12:32:43;10.20;4.20
20650;DHT22;10484;48.736;9.332;2024-02-04T12:35:13;10.20;3.80
20650;DHT22;10484;48.736;9.332;2024-02-04T12:37:50;10.30;3.60
20650;DHT22;10484;48.736;9.332;2024-02-04T12:40:39;10.30;3.60
20650;DHT22;10484;48.736;9.332;2024-02-04T12:43:04;10.30;3.60
20650;DHT22;10484;48.736;9.332;2024-02-04T12:45:30;10.40;3.40
20650;DHT22;10484;48.736;9.332;2024-02-04T12:47:57;10.40;3.00
20650;DHT22;10484;48.736;9.332;2024-02-04T12:50:24;10.40;2.60
20650;DHT22;10484;48.736;9.332;2024-02-04T12:53:09;10.40;2.50
20650;DHT22;10484;48.736;9.332;2024-02-04T12:55:39;10.50;2.60
20650;DHT22;10484;48.736;9.332;2024-02-04T12:58:09;10.50;2.50
20650;DHT22;10484;48.736;9.332;2024-02-04T13:00:38;10.60;2.40
20650;DHT22;10484;48.736;9.332;2024-02-04T13:03:10;10.60;2.30
20650;DHT22;10484;48.736;9.332;2024-02-04T13:05:37;10.70;2.30
20650;DHT22;10484;48.736;9.332;2024-02-04T13:08:03;10.70;2.40
20650;DHT22;10484;48.736;9.332;2024-02-04T13:10:32;10.70;1.60
20650;DHT22;10484;48.736;9.332;2024-02-04T13:13:06;10.80;1.40
20650;DHT22;10484;48.736;9.332;2024-02-04T13:15:40;10.90;1.10
20650;DHT22;10484;48.736;9.332;2024-02-04T13:18:07;10.90;1.00
20650;DHT22;10484;48.736;9.332;2024-02-04T13:20:33;11.00;3.90
20650;DHT22;10484;48.736;9.332;2024-02-04T13:22:59;11.00;1.00
20650;DHT22;10484;48.736;9.332;2024-02-04T13:25:25;11.00;1.00
20650;DHT22;10484;48.736;9.332;2024-02-04T13:27:51;11.00;3.60
20650;DHT22;10484;48.736;9.332;2024-02-04T13:30:17;11.00;1.00
20650;DHT22;10484;48.736;9.332;2024-02-04T13:32:44;11.10;1.00
20650;DHT22;10484;48.736;9.332;2024-02-04T13:35:09;11.10;1.00
20650;DHT22;10484;48.736;9.332;2024-02-04T13:37:36;11.00;1.00
20650;DHT22;10484;48.736;9.332;2024-02-04T13:40:04;11.10;1.00
20650;DHT22;10484;48.736;9.332;2024-02-04T13:42:31;11.10;1.00
20650;DHT22;10484;48.736;9.332;2024-02-04T13:44:57;11.10;1.00
20650;DHT22;10484;48.736;9.332;2024-02-04T13:47:22;11.00;1.00
20650;DHT22;10484;48.736;9.332;2024-02-04T13:49:48;11.10;1.00
20650;DHT22;10484;48.736;9.332;2024-02-04T13:52:13;11.10;1.00
20650;DHT22;10484;48.736;9.332;2024-02-04T13:54:39;11.10;1.00
20650;DHT22;10484;48.736;9.332;2024-02-04T13:57:05;11.10;1.00
20650;DHT22;10484;48.736;9.332;2024-02-04T13:59:31;11.10;1.00
20650;DHT22;10484;48.736;9.332;2024-02-04T14:01:56;11.10;1.00
20650;DHT22;10484;48.736;9.332;2024-02-04T14:04:22;11.10;1.00
20650;DHT22;10484;48.736;9.332;2024-02-04T14:06:47;11.10;1.00
20650;DHT22;10484;48.736;9.332;2024-02-04T14:09:13;11.10;1.00
20650;DHT22;10484;48.736;9.332;2024-02-04T14:11:38;11.10;1.00
20650;DHT22;10484;48.736;9.332;2024-02-04T14:14:04;11.10;1.00
20650;DHT22;10484;48.736;9.332;2024-02-04T14:16:30;11.20;1.00
20650;DHT22;10484;48.736;9.332;2024-02-04T14:18:55;11.20;1.00
20650;DHT22;10484;48.736;9.332;2024-02-04T14:21:21;11.20;1.00
20650;DHT22;10484;48.736;9.332;2024-02-04T14:23:46;11.20;1.00
20650;DHT22;10484;48.736;9.332;2024-02-04T14:26:19;11.20;1.00
20650;DHT22;10484;48.736;9.332;2024-02-04T14:28:45;11.20;1.00
20650;DHT22;10484;48.736;9.332;2024-02-04T14:31:11;11.20;1.00
20650;DHT22;10484;48.736;9.332;2024-02-04T14:33:36;11.20;1.00
20650;DHT22;10484;48.736;9.332;2024-02-04T14:36:02;11.20;1.00
20650;DHT22;10484;48.736;9.332;2024-02-04T14:38:29;11.20;1.00
20650;DHT22;10484;48.736;9.332;2024-02-04T14:40:57;11.20;1.00
20650;DHT22;10484;48.736;9.332;2024-02-04T14:43:23;11.10;1.00
20650;DHT22;10484;48.736;9.332;2024-02-04T14:45:50;11.10;1.00
20650;DHT22;10484;48.736;9.332;2024-02-04T14:48:15;11.10;1.00
20650;DHT22;10484;48.736;9.332;2024-02-04T14:50:41;11.10;1.00
20650;DHT22;10484;48.736;9.332;2024-02-04T14:53:07;11.10;1.00
20650;DHT22;10484;48.736;9.332;2024-02-04T14:55:33;11.10;1.00
20650;DHT22;10484;48.736;9.332;2024-02-04T14:57:59;11.10;1.00
20650;DHT22;10484;48.736;9.332;2024-02-04T15:00:24;11.10;1.00
20650;DHT22;10484;48.736;9.332;2024-02-04T15:02:52;11.10;1.00
20650;DHT22;10484;48.736;9.332;2024-02-04T15:05:17;11.10;1.00
20650;DHT22;10484;48.736;9.332;2024-02-04T15:07:43;11.10;1.00
20650;DHT22;10484;48.736;9.332;2024-02-04T15:10:09;11.00;1.00
20650;DHT22;10484;48.736;9.332;2024-02-04T15:12:38;11.00;1.00
20650;DHT22;10484;48.736;9.332;2024-02-04T15:15:04;11.00;1.00
20650;DHT22;10484;48.736;9.332;2024-02-04T15:17:32;11.00;1.00
20650;DHT22;10484;48.736;9.332;2024-02-04T15:19:58;11.00;1.00
20650;DHT22;10484;48.736;9.332;2024-02-04T15:22:24;11.00;1.00
20650;DHT22;10484;48.736;9.332;2024-02-04T15:24:50;11.00;1.00
20650;DHT22;10484;48.736;9.332;2024-02-04T15:27:17;11.00;1.00
20650;DHT22;10484;48.736;9.332;2024-02-04T15:29:43;11.00;1.00
20650;DHT22;10484;48.736;9.332;2024-02-04T15:32:10;11.00;1.00
20650;DHT22;10484;48.736;9.332;2024-02-04T15:34:36;10.90;1.00
20650;DHT22;10484;48.736;9.332;2024-02-04T15:37:02;11.00;1.00
20650;DHT22;10484;48.736;9.332;2024-02-04T15:39:28;11.00;1.00
20650;DHT22;10484;48.736;9.332;2024-02-04T15:41:54;11.00;1.00
20650;DHT22;10484;48.736;9.332;2024-02-04T15:44:20;11.00;1.00
20650;DHT22;10484;48.736;9.332;2024-02-04T15:46:48;11.00;1.00
20650;DHT22;10484;48.736;9.332;2024-02-04T15:49:17;11.00;1.00
20650;DHT22;10484;48.736;9.332;2024-02-04T15:51:44;11.00;1.00
20650;DHT22;10484;48.736;9.332;2024-02-04T15:54:11;11.00;1.00